Time;durP1;ratioP1;P1;durP2;ratioP2;P2;SDS_P1;SDS_P2;PMS_P1;PMS_P2;Temp;Humidity;BMP_temperature;BMP_pressure;BME280_temperature;BME280_humidity;BME280_pressure;Samples;Min_cycle;Max_cycle;Signal;HPM_P1;HPM_P2
2022/06/07 00:02:12;;;;;;;0.80;0.80;;;18.80;94.20;;;;;;5140628;27;20462;-62
2022/06/07 00:04:43;;;;;;;1.10;0.90;;;18.80;95.30;;;;;;5144732;27;20443;-62
2022/06/07 00:07:14;;;;;;;1.10;1.00;;;18.70;94.50;;;;;;5138496;27;20474;-62
2022/06/07 00:09:49;;;;;;;0.67;0.67;;;18.80;94.20;;;;;;5155513;27;20446;-62
2022/06/07 00:12:20;;;;;;;0.63;0.57;;;18.80;94.60;;;;;;5132594;27;20658;-61
2022/06/07 00:14:52;;;;;;;0.80;0.80;;;18.90;94.80;;;;;;5156244;27;20469;-61
2022/06/07 00:17:24;;;;;;;0.70;0.70;;;19.00;95.20;;;;;;5142507;27;20519;-61
2022/06/07 00:19:55;;;;;;;0.60;0.60;;;19.10;94.40;;;;;;5126380;27;20471;-62
2022/06/07 00:22:26;;;;;;;0.80;0.80;;;19.30;91.50;;;;;;5132055;27;20448;-61
2022/06/07 00:24:57;;;;;;;0.77;0.77;;;19.30;93.10;;;;;;5124073;27;20529;-60
2022/06/07 00:27:28;;;;;;;0.80;0.50;;;19.30;93.20;;;;;;5131935;27;20445;-61
2022/06/07 00:29:58;;;;;;;0.70;0.70;;;19.30;93.40;;;;;;5141393;27;20461;-61
2022/06/07 00:32:31;;;;;;;0.83;0.70;;;19.40;93.30;;;;;;5132996;27;20462;-62
2022/06/07 00:35:03;;;;;;;0.80;0.80;;;19.50;92.80;;;;;;5136308;27;20960;-61
2022/06/07 00:37:33;;;;;;;0.77;0.77;;;19.70;92.50;;;;;;5140152;27;20436;-61
2022/06/07 00:40:05;;;;;;;0.70;0.70;;;19.70;93.00;;;;;;5139590;27;20424;-61
2022/06/07 00:42:35;;;;;;;1.20;1.00;;;19.90;92.30;;;;;;5142888;27;21220;-61
2022/06/07 00:45:07;;;;;;;0.80;0.80;;;19.90;93.10;;;;;;5142995;27;20469;-62
2022/06/07 00:47:40;;;;;;;0.60;0.60;;;19.90;92.60;;;;;;5143115;27;20929;-61
2022/06/07 00:50:18;;;;;;;0.90;0.70;;;19.80;92.80;;;;;;5132584;27;20445;-61
2022/06/07 00:52:48;;;;;;;0.80;0.80;;;19.80;91.90;;;;;;5140467;27;20427;-61
2022/06/07 00:55:22;;;;;;;0.70;0.70;;;19.90;91.80;;;;;;5141751;27;20451;-61
2022/06/07 00:57:53;;;;;;;1.17;0.50;;;20.00;92.00;;;;;;5130477;27;20448;-61
2022/06/07 01:00:25;;;;;;;0.63;0.63;;;20.10;91.00;;;;;;5143014;27;20465;-61
2022/06/07 01:02:58;;;;;;;0.63;0.50;;;20.10;90.10;;;;;;5138284;27;20461;-60
2022/06/07 01:05:29;;;;;;;0.60;0.60;;;19.80;90.60;;;;;;5141788;27;20464;-61
2022/06/07 01:10:52;;;;;;;0.70;0.60;;;19.70;91.20;;;;;;5139771;27;20432;-60
2022/06/07 01:13:27;;;;;;;0.70;0.70;;;19.80;89.10;;;;;;5130441;27;20472;-61
2022/06/07 01:16:02;;;;;;;0.63;0.63;;;19.60;90.50;;;;;;5137800;27;20482;-60
2022/06/07 01:18:34;;;;;;;1.13;0.60;;;19.50;88.60;;;;;;5132093;27;20438;-60
2022/06/07 01:21:30;;;;;;;0.40;0.40;;;19.50;89.40;;;;;;5143604;27;20427;-60
2022/06/07 01:24:02;;;;;;;1.27;0.60;;;19.50;88.20;;;;;;5142067;27;20436;-61
2022/06/07 01:26:33;;;;;;;0.73;0.73;;;19.50;88.90;;;;;;5140602;27;20453;-62
2022/06/07 01:29:05;;;;;;;0.70;0.70;;;19.40;89.20;;;;;;5135634;27;20472;-61
2022/06/07 01:31:36;;;;;;;0.60;0.60;;;19.40;87.60;;;;;;5134006;27;20454;-62
2022/06/07 01:34:07;;;;;;;0.50;0.50;;;19.30;90.40;;;;;;5155585;27;20499;-61
2022/06/07 01:36:39;;;;;;;0.53;0.53;;;19.30;89.30;;;;;;5141784;27;20459;-61
2022/06/07 01:42:01;;;;;;;0.50;0.50;;;19.10;89.10;;;;;;5133891;27;20487;-61
2022/06/07 01:44:37;;;;;;;0.40;0.30;;;19.00;90.40;;;;;;5135935;27;20436;-61
2022/06/07 01:47:09;;;;;;;0.47;0.47;;;19.00;89.70;;;;;;5140865;27;20603;-60
2022/06/07 01:49:40;;;;;;;0.80;0.80;;;18.90;90.10;;;;;;5139382;27;20757;-61
2022/06/07 01:52:14;;;;;;;0.70;0.70;;;18.90;89.50;;;;;;5140185;27;20474;-61
2022/06/07 01:54:45;;;;;;;0.97;0.60;;;18.70;89.60;;;;;;5125830;27;20492;-60
2022/06/07 01:57:16;;;;;;;0.70;0.60;;;18.60;90.70;;;;;;5134037;27;20458;-59
2022/06/07 01:59:48;;;;;;;0.60;0.60;;;18.60;90.90;;;;;;5141083;27;20475;-60
2022/06/07 02:02:19;;;;;;;0.50;0.40;;;18.60;90.60;;;;;;5142550;27;20460;-60
2022/06/07 02:04:52;;;;;;;0.60;0.60;;;18.50;91.40;;;;;;5136516;27;20466;-62
2022/06/07 02:07:25;;;;;;;0.70;0.70;;;18.50;91.20;;;;;;5141315;27;20467;-62
2022/06/07 02:09:56;;;;;;;0.87;0.87;;;18.40;91.50;;;;;;5139557;27;20608;-63
2022/06/07 02:12:26;;;;;;;1.40;0.77;;;18.40;91.80;;;;;;5142662;27;20428;-63
2022/06/07 02:15:00;;;;;;;0.60;0.60;;;18.30;91.50;;;;;;5143881;27;20480;-63
2022/06/07 02:17:31;;;;;;;1.00;0.90;;;18.20;91.40;;;;;;5142642;27;20444;-63
2022/06/07 02:20:02;;;;;;;0.80;0.80;;;18.10;91.60;;;;;;5146530;27;20444;-62
2022/06/07 02:22:35;;;;;;;0.80;0.80;;;18.10;91.40;;;;;;5147307;27;20449;-62
2022/06/07 02:25:06;;;;;;;0.50;0.50;;;18.10;90.90;;;;;;5142979;27;20460;-62
2022/06/07 02:27:38;;;;;;;0.50;0.40;;;18.00;91.50;;;;;;5143570;27;20453;-61
2022/06/07 02:30:11;;;;;;;0.70;0.60;;;17.90;91.80;;;;;;5139179;27;20510;-62
2022/06/07 02:32:42;;;;;;;0.50;0.50;;;17.80;92.50;;;;;;5134690;27;20461;-63
2022/06/07 02:35:13;;;;;;;0.50;0.50;;;17.80;93.10;;;;;;5146816;27;20508;-62
2022/06/07 02:37:46;;;;;;;0.50;0.50;;;17.70;93.50;;;;;;5144125;27;20468;-62
2022/06/07 02:40:17;;;;;;;0.87;0.60;;;17.70;92.90;;;;;;5132323;27;20444;-62
2022/06/07 02:42:48;;;;;;;0.63;0.63;;;17.70;93.70;;;;;;5135380;27;20457;-62
2022/06/07 02:45:19;;;;;;;1.07;0.73;;;17.60;94.70;;;;;;5145285;27;20453;-62
2022/06/07 02:47:50;;;;;;;0.70;0.70;;;17.60;93.90;;;;;;5144340;27;20463;-63
2022/06/07 02:50:20;;;;;;;0.80;0.63;;;17.50;94.10;;;;;;5143155;27;20435;-62
2022/06/07 02:52:53;;;;;;;1.07;0.80;;;17.50;95.10;;;;;;5146681;27;20464;-62
2022/06/07 02:55:24;;;;;;;0.70;0.70;;;17.30;95.10;;;;;;5145281;27;20472;-62
2022/06/07 02:57:55;;;;;;;0.93;0.73;;;17.20;96.30;;;;;;5146588;27;20974;-63
2022/06/07 03:00:26;;;;;;;0.70;0.70;;;17.20;95.60;;;;;;5145803;27;20452;-63
2022/06/07 03:02:57;;;;;;;0.80;0.73;;;17.20;95.60;;;;;;5146987;27;20429;-62
2022/06/07 03:05:28;;;;;;;1.10;0.90;;;17.20;95.80;;;;;;5141114;27;20436;-62
2022/06/07 03:08:00;;;;;;;0.83;0.83;;;17.10;96.00;;;;;;5130885;27;20521;-62
2022/06/07 03:10:31;;;;;;;0.80;0.80;;;17.10;96.00;;;;;;5141180;27;20838;-62
2022/06/07 03:13:02;;;;;;;0.80;0.80;;;17.00;96.20;;;;;;5145805;27;20449;-62
2022/06/07 03:15:33;;;;;;;0.60;0.60;;;17.00;96.20;;;;;;5136506;27;20495;-64
2022/06/07 03:18:04;;;;;;;0.57;0.57;;;16.80;97.00;;;;;;5131647;27;20534;-62
2022/06/07 03:20:35;;;;;;;0.87;0.87;;;16.70;97.40;;;;;;5145016;27;20459;-62
2022/06/07 03:23:08;;;;;;;0.83;0.80;;;16.70;97.90;;;;;;5135348;27;20541;-62
2022/06/07 03:25:41;;;;;;;0.73;0.73;;;16.50;98.50;;;;;;5130461;27;20484;-62
2022/06/07 03:28:12;;;;;;;0.60;0.60;;;16.50;98.30;;;;;;5144447;27;20465;-62
2022/06/07 03:30:43;;;;;;;1.33;0.80;;;16.60;98.00;;;;;;5145056;27;20936;-62
2022/06/07 03:33:14;;;;;;;0.60;0.60;;;16.50;99.50;;;;;;5145694;27;20496;-62
2022/06/07 03:35:44;;;;;;;0.60;0.53;;;16.40;99.90;;;;;;5145432;27;20480;-62
2022/06/07 03:38:17;;;;;;;1.10;0.83;;;16.20;99.90;;;;;;5145582;27;20558;-63
2022/06/07 03:40:48;;;;;;;0.80;0.80;;;16.10;99.90;;;;;;5143219;27;20490;-62
2022/06/07 03:43:18;;;;;;;0.70;0.70;;;16.00;99.90;;;;;;5145080;27;20537;-64
2022/06/07 03:45:49;;;;;;;1.10;1.00;;;16.00;99.90;;;;;;5145499;27;20497;-62
2022/06/07 03:48:20;;;;;;;1.00;0.80;;;16.00;99.90;;;;;;5145931;27;20441;-63
2022/06/07 03:50:51;;;;;;;0.73;0.73;;;16.00;99.90;;;;;;5144863;27;20452;-62
2022/06/07 03:53:23;;;;;;;1.13;1.10;;;15.90;99.90;;;;;;5145281;27;20449;-63
2022/06/07 03:55:56;;;;;;;1.40;0.80;;;15.80;99.90;;;;;;5144349;27;20826;-63
2022/06/07 03:58:27;;;;;;;0.60;0.50;;;15.70;99.90;;;;;;5142405;27;20474;-63
2022/06/07 04:00:59;;;;;;;1.10;1.00;;;15.60;99.90;;;;;;5143825;27;20451;-64
2022/06/07 04:03:30;;;;;;;0.83;0.70;;;15.40;99.90;;;;;;5145921;27;20897;-63
2022/06/07 04:06:02;;;;;;;1.20;0.73;;;15.40;99.90;;;;;;5143739;27;20521;-63
2022/06/07 04:08:34;;;;;;;0.87;0.87;;;15.20;99.90;;;;;;5137462;27;20469;-64
2022/06/07 04:11:05;;;;;;;1.53;1.00;;;15.20;99.90;;;;;;5137408;27;20483;-63
2022/06/07 04:13:36;;;;;;;0.77;0.77;;;15.10;99.90;;;;;;5142802;27;20461;-63
2022/06/07 04:16:13;;;;;;;0.90;0.90;;;15.00;99.90;;;;;;5138619;27;20479;-64
2022/06/07 04:18:45;;;;;;;1.10;1.00;;;15.00;99.90;;;;;;5145559;27;20441;-63
2022/06/07 04:21:17;;;;;;;1.00;0.70;;;14.90;99.90;;;;;;5142703;27;20452;-64
2022/06/07 04:24:02;;;;;;;1.87;1.13;;;14.80;99.90;;;;;;5139953;27;20544;-62
2022/06/07 04:26:33;;;;;;;2.70;0.93;;;14.80;99.90;;;;;;5132197;27;20458;-63
2022/06/07 04:29:04;;;;;;;1.33;1.10;;;14.60;99.90;;;;;;5135268;27;20575;-63
2022/06/07 04:31:35;;;;;;;1.30;1.10;;;14.50;99.90;;;;;;5139237;27;20452;-62
2022/06/07 04:34:06;;;;;;;1.20;1.10;;;14.50;99.90;;;;;;5132510;27;20494;-63
2022/06/07 04:36:38;;;;;;;1.00;0.90;;;14.40;99.90;;;;;;5133447;27;20517;-63
2022/06/07 04:39:15;;;;;;;0.93;0.80;;;14.30;99.90;;;;;;5129434;27;20449;-63
2022/06/07 04:41:46;;;;;;;1.87;0.90;;;14.20;99.90;;;;;;5135363;27;20484;-63
2022/06/07 04:44:17;;;;;;;1.17;1.07;;;14.20;99.90;;;;;;5133418;27;20546;-63
2022/06/07 04:46:50;;;;;;;0.80;0.80;;;14.20;99.90;;;;;;5133343;27;20441;-63
2022/06/07 04:49:21;;;;;;;0.70;0.70;;;14.10;99.90;;;;;;5133033;27;20509;-63
2022/06/07 04:51:52;;;;;;;0.70;0.70;;;14.00;99.90;;;;;;5140149;27;20441;-63
2022/06/07 04:54:24;;;;;;;1.20;1.10;;;13.90;99.90;;;;;;5143159;27;20574;-63
2022/06/07 04:56:56;;;;;;;1.17;0.90;;;13.90;99.90;;;;;;5140040;27;20499;-63
2022/06/07 04:59:28;;;;;;;2.20;1.13;;;13.80;99.90;;;;;;5123320;28;20445;-63
2022/06/07 05:01:59;;;;;;;2.30;1.40;;;13.70;99.90;;;;;;5123180;28;20449;-63
2022/06/07 05:04:30;;;;;;;1.13;1.13;;;13.60;99.90;;;;;;5164785;27;20424;-63
2022/06/07 05:07:03;;;;;;;1.00;1.00;;;13.60;99.90;;;;;;5129339;27;20458;-63
2022/06/07 05:09:36;;;;;;;1.70;1.20;;;13.50;99.90;;;;;;5122276;28;20978;-62
2022/06/07 05:12:08;;;;;;;1.43;1.33;;;13.40;99.90;;;;;;5122968;28;20498;-63
2022/06/07 05:14:39;;;;;;;1.20;1.10;;;13.30;99.90;;;;;;5122909;27;20509;-63
2022/06/07 05:17:12;;;;;;;0.80;0.80;;;13.30;99.90;;;;;;5123116;28;20485;-64
2022/06/07 05:19:43;;;;;;;1.30;1.20;;;13.20;99.90;;;;;;5126873;27;20440;-63
2022/06/07 05:22:14;;;;;;;1.40;1.13;;;13.20;99.90;;;;;;5136661;27;20903;-63
2022/06/07 05:24:48;;;;;;;0.93;0.90;;;13.20;99.90;;;;;;5132937;27;20449;-63
2022/06/07 05:27:26;;;;;;;1.33;0.90;;;13.20;99.90;;;;;;5143713;27;20936;-63
2022/06/07 05:30:02;;;;;;;1.40;1.30;;;13.20;99.90;;;;;;5138403;27;20484;-63
2022/06/07 05:32:35;;;;;;;1.50;1.40;;;13.10;99.90;;;;;;5136460;27;20444;-64
2022/06/07 05:35:09;;;;;;;1.63;1.10;;;13.00;99.90;;;;;;5131568;27;20500;-63
2022/06/07 05:37:40;;;;;;;1.70;1.60;;;13.00;99.90;;;;;;5140114;27;20879;-63
2022/06/07 05:40:13;;;;;;;1.90;1.17;;;12.90;99.90;;;;;;5150087;27;20463;-63
2022/06/07 05:42:46;;;;;;;1.57;1.37;;;12.80;99.90;;;;;;5142671;27;20454;-63
2022/06/07 05:45:17;;;;;;;1.93;1.43;;;12.80;99.90;;;;;;5130384;27;20449;-63
2022/06/07 05:47:50;;;;;;;2.13;1.33;;;12.70;99.90;;;;;;5142571;27;20464;-63
2022/06/07 05:50:27;;;;;;;1.27;1.10;;;12.60;99.90;;;;;;5139282;27;20908;-63
2022/06/07 05:52:58;;;;;;;1.93;1.83;;;12.60;99.90;;;;;;5140790;27;21417;-62
2022/06/07 05:55:31;;;;;;;3.57;1.93;;;12.60;99.90;;;;;;5126101;27;20465;-63
2022/06/07 05:58:01;;;;;;;2.83;2.30;;;12.50;99.90;;;;;;5132760;27;20492;-63
2022/06/07 06:00:35;;;;;;;4.70;1.60;;;12.50;99.90;;;;;;5130250;27;20481;-63
2022/06/07 06:03:09;;;;;;;2.63;1.70;;;12.50;99.90;;;;;;5133374;27;20463;-63
2022/06/07 06:05:46;;;;;;;3.90;2.27;;;12.50;99.90;;;;;;5143000;27;20448;-63
2022/06/07 06:11:10;;;;;;;1.50;1.40;;;12.40;99.90;;;;;;5123607;27;20469;-63
2022/06/07 06:13:41;;;;;;;2.80;2.33;;;12.30;99.90;;;;;;5129169;27;20548;-63
2022/06/07 06:16:14;;;;;;;1.70;1.60;;;12.30;99.90;;;;;;5132426;27;20496;-63
2022/06/07 06:18:46;;;;;;;2.80;1.93;;;12.30;99.90;;;;;;5132811;27;20860;-63
2022/06/07 06:21:17;;;;;;;1.80;1.70;;;12.30;99.90;;;;;;5131152;27;20456;-63
2022/06/07 06:23:48;;;;;;;2.37;2.17;;;12.30;99.90;;;;;;5130368;27;20461;-63
2022/06/07 06:26:22;;;;;;;2.50;1.97;;;12.20;99.90;;;;;;5133344;28;20463;-63
2022/06/07 06:28:52;;;;;;;3.03;2.17;;;12.20;99.90;;;;;;5133367;27;20485;-63
2022/06/07 06:31:24;;;;;;;3.00;2.50;;;12.20;99.90;;;;;;5134219;27;20466;-63
2022/06/07 06:33:56;;;;;;;2.13;1.87;;;12.20;99.90;;;;;;5147663;27;20483;-63
2022/06/07 06:36:30;;;;;;;2.80;1.70;;;12.20;99.90;;;;;;5135877;28;20469;-64
2022/06/07 06:39:01;;;;;;;1.83;1.60;;;12.20;99.90;;;;;;5140905;28;21049;-63
2022/06/07 06:41:35;;;;;;;2.03;1.87;;;12.20;99.90;;;;;;5140217;27;20464;-63
2022/06/07 06:44:06;;;;;;;1.77;1.67;;;12.20;99.90;;;;;;5138458;27;20716;-63
2022/06/07 06:46:41;;;;;;;1.77;1.67;;;12.10;99.90;;;;;;5141229;27;20524;-63
2022/06/07 06:49:14;;;;;;;2.03;1.77;;;12.10;99.90;;;;;;5140362;27;20458;-63
2022/06/07 06:51:45;;;;;;;3.03;2.07;;;12.00;99.90;;;;;;5141137;27;20799;-63
2022/06/07 06:54:17;;;;;;;1.80;1.70;;;11.90;99.90;;;;;;5134665;27;20456;-63
2022/06/07 06:56:50;;;;;;;1.87;1.77;;;11.90;99.90;;;;;;5131425;27;20932;-63
2022/06/07 06:59:23;;;;;;;1.73;1.63;;;11.90;99.90;;;;;;5141569;27;21259;-63
2022/06/07 07:01:54;;;;;;;2.37;2.17;;;11.80;99.90;;;;;;5143713;27;20479;-63
2022/06/07 07:04:25;;;;;;;2.17;1.97;;;11.80;99.90;;;;;;5145446;27;20535;-63
2022/06/07 07:06:56;;;;;;;1.93;1.63;;;11.80;99.90;;;;;;5144512;27;20471;-63
2022/06/07 07:09:28;;;;;;;1.73;1.63;;;11.80;99.90;;;;;;5143872;27;20770;-63
2022/06/07 07:12:02;;;;;;;2.60;2.40;;;11.80;99.90;;;;;;5129605;27;20469;-63
2022/06/07 07:14:33;;;;;;;1.93;1.70;;;11.70;99.90;;;;;;5142076;27;20918;-63
2022/06/07 07:17:06;;;;;;;2.23;2.03;;;11.70;99.90;;;;;;5139422;27;20799;-63
2022/06/07 07:19:37;;;;;;;2.90;2.27;;;11.70;99.90;;;;;;5137657;27;20468;-63
2022/06/07 07:22:08;;;;;;;2.43;2.00;;;11.60;99.90;;;;;;5134219;27;20460;-63
2022/06/07 07:24:38;;;;;;;1.80;1.50;;;11.60;99.90;;;;;;5135619;27;20457;-63
2022/06/07 07:27:11;;;;;;;2.40;1.93;;;11.50;99.90;;;;;;5132606;27;20467;-63
2022/06/07 07:29:42;;;;;;;1.80;1.70;;;11.50;99.90;;;;;;5134845;27;20521;-63
2022/06/07 07:32:12;;;;;;;2.00;1.80;;;11.40;99.90;;;;;;5132223;27;20460;-63
2022/06/07 07:34:46;;;;;;;3.13;1.90;;;11.40;99.90;;;;;;5137524;27;20481;-63
2022/06/07 07:37:17;;;;;;;2.30;2.10;;;11.40;99.90;;;;;;5142055;27;20556;-64
2022/06/07 07:39:51;;;;;;;3.07;2.27;;;11.30;99.90;;;;;;5134199;27;20460;-62
2022/06/07 07:42:23;;;;;;;2.07;1.87;;;11.30;99.90;;;;;;5137086;27;20465;-63
2022/06/07 07:44:56;;;;;;;1.80;1.70;;;11.30;99.90;;;;;;5133254;27;20484;-62
2022/06/07 07:47:27;;;;;;;2.10;1.93;;;11.30;99.90;;;;;;5143930;27;20461;-63
2022/06/07 07:49:58;;;;;;;2.03;1.80;;;11.20;99.90;;;;;;5138349;27;20541;-62
2022/06/07 07:52:29;;;;;;;2.10;1.90;;;11.20;99.90;;;;;;5153105;27;20942;-63
2022/06/07 07:55:02;;;;;;;1.93;1.77;;;11.20;99.90;;;;;;5130845;27;20789;-63
2022/06/07 07:57:34;;;;;;;2.47;1.80;;;11.20;99.90;;;;;;5133403;27;20946;-63
2022/06/07 08:00:07;;;;;;;3.00;2.20;;;11.20;99.90;;;;;;5144666;27;20440;-63
2022/06/07 08:02:38;;;;;;;2.07;1.87;;;11.20;99.90;;;;;;5131486;27;20457;-63
2022/06/07 08:05:12;;;;;;;2.10;1.80;;;11.20;99.90;;;;;;5136482;27;20449;-63
2022/06/07 08:07:43;;;;;;;3.00;1.50;;;11.20;99.90;;;;;;5139218;27;20452;-64
2022/06/07 08:10:27;;;;;;;2.30;2.10;;;11.10;99.90;;;;;;5137131;27;20460;-63
2022/06/07 08:13:00;;;;;;;1.57;1.47;;;11.00;99.90;;;;;;5138440;27;20561;-62
2022/06/07 08:15:33;;;;;;;2.33;2.10;;;11.00;99.90;;;;;;5139068;27;20466;-63
2022/06/07 08:18:05;;;;;;;2.53;1.53;;;10.90;99.90;;;;;;5128589;27;20971;-62
2022/06/07 08:20:38;;;;;;;2.10;1.90;;;10.90;99.90;;;;;;5135195;27;20468;-65
2022/06/07 08:23:10;;;;;;;2.80;1.80;;;10.90;99.90;;;;;;5133890;27;20453;-63
2022/06/07 08:25:41;;;;;;;1.57;1.33;;;10.80;99.90;;;;;;5136334;27;20453;-62
2022/06/07 08:28:14;;;;;;;2.20;1.83;;;10.80;99.90;;;;;;5130236;27;20970;-64
2022/06/07 08:30:46;;;;;;;2.00;1.80;;;10.80;99.90;;;;;;5134359;27;20951;-63
2022/06/07 08:38:57;;;;;;;1.63;1.53;;;10.70;99.90;;;;;;5138682;27;20489;-63
2022/06/07 08:41:32;;;;;;;2.40;1.57;;;10.60;99.90;;;;;;5140109;27;20452;-63
2022/06/07 08:44:08;;;;;;;1.97;1.77;;;10.60;99.90;;;;;;5142213;27;20452;-63
2022/06/07 08:46:40;;;;;;;2.20;2.00;;;10.50;99.90;;;;;;5135549;27;20469;-63
2022/06/07 08:49:14;;;;;;;2.10;1.70;;;10.50;99.90;;;;;;5143001;27;20534;-64
2022/06/07 08:51:52;;;;;;;2.50;2.30;;;10.60;99.90;;;;;;5136337;27;20460;-63
2022/06/07 08:54:30;;;;;;;1.90;1.70;;;10.50;99.90;;;;;;5135569;27;20460;-63
2022/06/07 08:57:10;;;;;;;1.90;1.70;;;10.50;99.90;;;;;;5140588;27;20463;-63
2022/06/07 08:59:47;;;;;;;2.07;1.87;;;10.60;99.90;;;;;;5137854;27;20502;-63
2022/06/07 09:02:49;;;;;;;2.60;2.30;;;10.50;99.90;;;;;;5140760;27;20455;-63
2022/06/07 09:05:22;;;;;;;1.90;1.60;;;10.50;99.90;;;;;;5139496;27;20456;-63
2022/06/07 09:07:53;;;;;;;1.73;1.30;;;10.60;99.90;;;;;;5143541;27;20460;-63
2022/06/07 09:13:23;;;;;;;1.83;1.43;;;10.30;99.90;;;;;;5142501;27;20452;-63
2022/06/07 09:15:58;;;;;;;1.87;1.77;;;10.30;99.90;;;;;;5141476;27;20886;-63
2022/06/07 09:18:41;;;;;;;1.83;1.73;;;10.20;99.90;;;;;;5129836;27;20499;-63
2022/06/07 09:21:24;;;;;;;2.10;2.00;;;10.20;99.90;;;;;;5131992;27;20456;-63
2022/06/07 09:23:59;;;;;;;2.63;2.43;;;10.20;99.90;;;;;;5135056;27;20463;-66
2022/06/07 09:26:37;;;;;;;2.53;2.33;;;10.20;99.90;;;;;;5139902;27;20553;-63
2022/06/07 09:29:15;;;;;;;2.03;1.83;;;10.20;99.90;;;;;;5128265;27;20453;-62
2022/06/07 09:31:51;;;;;;;2.23;1.97;;;10.10;99.90;;;;;;5133988;27;20797;-62
2022/06/07 09:34:27;;;;;;;2.80;2.13;;;10.10;99.90;;;;;;5141438;27;20514;-62
2022/06/07 09:37:01;;;;;;;1.97;1.87;;;10.10;99.90;;;;;;5142957;27;20445;-63
2022/06/07 09:39:36;;;;;;;2.10;1.90;;;10.00;99.90;;;;;;5125953;27;20497;-63
2022/06/07 09:42:17;;;;;;;2.87;2.67;;;9.90;99.90;;;;;;5128865;27;20848;-62
2022/06/07 09:45:00;;;;;;;4.30;2.73;;;10.00;99.90;;;;;;5140499;27;20528;-62
2022/06/07 09:47:34;;;;;;;1.90;1.70;;;9.90;99.90;;;;;;5130992;27;20459;-63
2022/06/07 09:50:19;;;;;;;4.17;2.53;;;9.80;99.90;;;;;;5141361;27;20463;-62
2022/06/07 09:52:54;;;;;;;2.40;2.20;;;9.90;99.90;;;;;;5140739;27;20456;-62
2022/06/07 09:55:34;;;;;;;3.30;2.43;;;9.90;99.90;;;;;;5139455;27;20456;-62
2022/06/07 09:58:35;;;;;;;3.00;2.70;;;9.90;99.90;;;;;;5139458;27;20460;-63
2022/06/07 10:01:12;;;;;;;3.78;2.50;;;9.90;99.90;;;;;;5138507;27;20456;-62
2022/06/07 10:03:49;;;;;;;2.90;1.95;;;9.80;99.90;;;;;;5127006;27;20205;-62
2022/06/07 10:06:28;;;;;;;3.43;2.70;;;9.80;99.90;;;;;;5142605;27;20282;-62
2022/06/07 10:09:27;;;;;;;5.00;2.90;;;9.80;99.90;;;;;;5141934;27;20483;-62
2022/06/07 10:12:06;;;;;;;3.47;3.17;;;9.80;99.90;;;;;;5140724;27;20334;-62
2022/06/07 10:14:47;;;;;;;2.63;2.43;;;9.80;99.90;;;;;;5140394;27;20490;-62
2022/06/07 10:17:51;;;;;;;3.20;2.23;;;9.90;99.90;;;;;;5134079;27;20458;-62
2022/06/07 10:20:30;;;;;;;2.90;2.00;;;9.80;99.90;;;;;;5136761;27;20509;-62
2022/06/07 10:23:17;;;;;;;2.60;2.40;;;9.70;99.90;;;;;;5139934;27;20471;-63
2022/06/07 10:26:02;;;;;;;3.00;2.60;;;9.80;99.90;;;;;;5127429;27;21040;-62
2022/06/07 10:28:38;;;;;;;2.80;2.60;;;9.70;99.90;;;;;;5126389;27;20212;-63
2022/06/07 10:31:17;;;;;;;3.00;2.70;;;9.70;99.90;;;;;;5136934;27;20463;-63
2022/06/07 10:33:54;;;;;;;2.30;2.10;;;9.70;99.90;;;;;;5142477;27;20475;-63
2022/06/07 10:36:48;;;;;;;2.47;2.27;;;9.60;99.90;;;;;;5144877;27;20954;-62
2022/06/07 10:39:34;;;;;;;2.90;2.58;;;9.60;99.90;;;;;;5141651;27;20502;-62
2022/06/07 10:42:15;;;;;;;2.25;2.05;;;9.50;99.90;;;;;;5145693;27;20209;-62
2022/06/07 10:44:50;;;;;;;2.35;2.15;;;9.40;99.90;;;;;;5134852;27;20558;-62
2022/06/07 10:47:28;;;;;;;3.50;2.90;;;9.60;99.90;;;;;;5142120;27;20211;-63
2022/06/07 10:50:04;;;;;;;3.80;2.23;;;9.60;99.90;;;;;;5129699;27;20608;-63
2022/06/07 10:52:44;;;;;;;4.40;2.80;;;9.60;99.90;;;;;;5147203;27;20440;-63
2022/06/07 10:55:21;;;;;;;2.17;1.90;;;9.60;99.90;;;;;;5140204;27;20456;-63
2022/06/07 10:58:04;;;;;;;3.23;2.40;;;9.50;99.90;;;;;;5129071;27;20207;-63
2022/06/07 11:00:39;;;;;;;2.70;2.30;;;9.60;99.90;;;;;;5130342;27;20495;-62
2022/06/07 11:03:26;;;;;;;2.15;1.83;;;9.60;99.90;;;;;;5135700;27;20208;-62
2022/06/07 11:12:01;;;;;;;2.70;2.50;;;9.50;99.90;;;;;;5140421;27;20203;-63
2022/06/07 11:14:45;;;;;;;1.67;1.58;;;9.50;99.90;;;;;;5142766;27;20460;-62
2022/06/07 11:17:25;;;;;;;2.30;1.90;;;9.40;99.90;;;;;;5137848;27;20696;-62
2022/06/07 11:20:00;;;;;;;2.30;2.10;;;9.30;99.90;;;;;;5136172;27;20506;-63
2022/06/07 11:22:37;;;;;;;3.13;2.58;;;9.20;99.90;;;;;;5144595;27;20207;-62
2022/06/07 11:25:34;;;;;;;2.60;2.28;;;9.20;99.90;;;;;;5144204;27;20523;-62
2022/06/07 11:28:14;;;;;;;2.30;2.10;;;9.20;99.90;;;;;;5143733;27;20257;-63
2022/06/07 11:30:53;;;;;;;2.00;1.90;;;9.20;99.90;;;;;;5142727;27;20211;-63
2022/06/07 11:33:42;;;;;;;2.50;2.30;;;9.20;99.90;;;;;;5139349;27;20323;-62
2022/06/07 11:36:35;;;;;;;2.90;2.50;;;9.20;99.90;;;;;;5139665;27;20199;-62
2022/06/07 11:39:31;;;;;;;3.22;2.42;;;9.30;99.90;;;;;;5138367;27;20286;-62
2022/06/07 11:42:29;;;;;;;3.23;2.23;;;9.20;99.90;;;;;;5141189;27;20203;-62
2022/06/07 11:45:18;;;;;;;2.63;2.00;;;9.20;99.90;;;;;;5144622;27;20473;-62
2022/06/07 11:48:23;;;;;;;2.97;2.67;;;9.10;99.90;;;;;;5131715;27;20199;-62
2022/06/07 11:51:00;;;;;;;2.40;2.20;;;9.10;99.90;;;;;;5130134;27;20239;-62
2022/06/07 11:53:34;;;;;;;2.85;2.20;;;9.10;99.90;;;;;;5143258;27;20223;-62
2022/06/07 11:56:32;;;;;;;3.08;2.35;;;9.10;99.90;;;;;;5144650;27;20213;-62
2022/06/07 11:59:20;;;;;;;2.25;2.03;;;9.10;99.90;;;;;;5137668;27;20203;-62
2022/06/07 12:02:32;;;;;;;2.53;2.30;;;9.10;99.90;;;;;;5145196;27;20203;-62
2022/06/07 12:05:26;;;;;;;2.70;2.47;;;9.10;99.90;;;;;;5144771;27;20240;-62
2022/06/07 12:08:01;;;;;;;2.30;2.10;;;9.10;99.90;;;;;;5133501;27;20203;-62
2022/06/07 12:10:36;;;;;;;3.15;2.40;;;9.00;99.90;;;;;;5144017;27;20217;-62
2022/06/07 12:13:14;;;;;;;3.13;2.85;;;8.90;99.90;;;;;;5138209;27;20208;-62
2022/06/07 12:15:50;;;;;;;2.67;2.38;;;9.00;99.90;;;;;;5142070;27;20195;-62
2022/06/07 12:18:23;;;;;;;3.08;2.78;;;8.90;99.90;;;;;;5129145;27;20511;-61
2022/06/07 12:21:08;;;;;;;3.00;2.70;;;8.90;99.90;;;;;;5141977;27;20260;-62
2022/06/07 12:23:43;;;;;;;2.10;2.00;;;8.80;99.90;;;;;;5137166;27;20248;-62
2022/06/07 12:26:22;;;;;;;3.10;2.80;;;8.80;99.90;;;;;;5142060;27;20282;-61
2022/06/07 12:28:55;;;;;;;3.25;2.58;;;8.80;99.90;;;;;;5138516;27;20200;-61
2022/06/07 12:31:29;;;;;;;2.63;2.43;;;8.70;99.90;;;;;;5135610;27;20214;-62
2022/06/07 12:34:02;;;;;;;2.90;2.50;;;8.70;99.90;;;;;;5144879;27;20480;-62
2022/06/07 12:36:35;;;;;;;2.60;2.22;;;8.60;99.90;;;;;;5144165;27;20278;-62
2022/06/07 12:39:12;;;;;;;2.70;2.43;;;8.60;99.90;;;;;;5143658;27;20635;-62
2022/06/07 12:41:52;;;;;;;2.40;2.20;;;8.60;99.90;;;;;;5144924;27;20459;-62
2022/06/07 12:44:27;;;;;;;3.70;2.83;;;8.60;99.90;;;;;;5125153;27;20192;-62
2022/06/07 12:47:01;;;;;;;3.47;2.60;;;8.70;99.90;;;;;;5138187;27;20209;-62
2022/06/07 12:49:44;;;;;;;2.15;2.00;;;8.70;99.90;;;;;;5143529;27;20290;-62
2022/06/07 12:52:17;;;;;;;2.50;2.13;;;8.70;99.90;;;;;;5131976;27;20657;-62
2022/06/07 12:54:52;;;;;;;2.78;2.35;;;8.70;99.90;;;;;;5142756;27;20662;-62
2022/06/07 12:57:27;;;;;;;3.05;2.75;;;8.70;99.90;;;;;;5139894;27;20203;-62
2022/06/07 13:00:03;;;;;;;3.83;2.72;;;8.80;99.90;;;;;;5137429;27;20223;-61
2022/06/07 13:02:40;;;;;;;3.67;2.90;;;8.80;99.90;;;;;;5144162;27;20262;-63
2022/06/07 13:05:17;;;;;;;7.45;2.80;;;8.80;99.90;;;;;;5141017;27;20207;-63
2022/06/07 13:07:49;;;;;;;2.95;2.22;;;8.80;99.90;;;;;;5133091;27;20204;-63
2022/06/07 13:10:22;;;;;;;3.13;2.88;;;8.80;99.90;;;;;;5140975;27;20229;-63
2022/06/07 13:12:56;;;;;;;3.27;2.87;;;8.80;99.90;;;;;;5136584;27;20212;-62
2022/06/07 13:15:30;;;;;;;2.35;2.15;;;8.80;99.90;;;;;;5135133;27;21422;-63
2022/06/07 13:18:07;;;;;;;2.95;2.55;;;8.90;99.90;;;;;;5143611;27;20199;-62
2022/06/07 13:20:41;;;;;;;2.83;2.35;;;8.90;99.90;;;;;;5141143;27;20223;-63
2022/06/07 13:23:26;;;;;;;4.15;2.70;;;9.00;99.90;;;;;;5141064;27;20207;-63
2022/06/07 13:26:11;;;;;;;3.35;2.50;;;9.10;99.90;;;;;;5138520;27;20207;-62
2022/06/07 13:28:42;;;;;;;4.03;3.03;;;9.10;99.90;;;;;;5139403;27;22009;-62
2022/06/07 13:31:34;;;;;;;4.07;3.00;;;9.10;99.90;;;;;;5139914;27;20206;-63
2022/06/07 13:34:19;;;;;;;3.22;2.92;;;9.20;99.90;;;;;;5142846;27;20287;-62
2022/06/07 13:37:15;;;;;;;2.70;2.35;;;9.20;99.90;;;;;;5139036;27;20204;-63
2022/06/07 13:40:01;;;;;;;2.67;2.40;;;9.30;99.90;;;;;;5140524;27;20203;-63
2022/06/07 13:42:34;;;;;;;3.15;2.85;;;9.40;99.90;;;;;;5143501;27;20267;-63
2022/06/07 13:45:26;;;;;;;7.30;2.92;;;9.50;99.90;;;;;;5130631;27;20200;-63
2022/06/07 13:48:16;;;;;;;2.78;2.58;;;9.60;99.90;;;;;;5142643;27;20643;-63
2022/06/07 13:53:48;;;;;;;2.42;2.15;;;10.00;99.90;;;;;;5134807;27;20453;-63
2022/06/07 13:56:22;;;;;;;2.40;2.20;;;10.20;99.90;;;;;;5156552;27;20194;-64
2022/06/07 13:58:54;;;;;;;3.53;2.70;;;10.30;99.90;;;;;;5143057;27;20462;-63